createdAt,value
2022-11-07T00:00:58.316Z,32.75
2022-11-07T00:03:00.525Z,31.38
2022-11-07T00:05:03.604Z,30.73
2022-11-07T00:07:07.048Z,30.20
2022-11-07T00:09:10.491Z,30.75
2022-11-07T00:11:12.589Z,31.00
2022-11-07T00:13:14.744Z,30.30
2022-11-07T00:15:17.134Z,30.33
2022-11-07T00:17:19.412Z,29.75
2022-11-07T00:19:22.604Z,33.70
2022-11-07T00:21:24.894Z,28.55
2022-11-07T00:23:27.045Z,31.00
2022-11-07T00:25:29.239Z,30.90
2022-11-07T00:27:31.373Z,32.03
2022-11-07T00:29:33.550Z,35.00
2022-11-07T00:31:38.428Z,30.73
2022-11-07T00:34:43.068Z,29.42
2022-11-07T00:36:45.708Z,30.77
2022-11-07T00:38:47.955Z,31.00
2022-11-07T00:41:01.282Z,32.60
2022-11-07T00:43:03.283Z,30.10
2022-11-07T00:45:06.697Z,28.38
2022-11-07T00:47:08.774Z,30.15
2022-11-07T00:49:10.966Z,30.67
2022-11-07T00:51:14.088Z,33.45
2022-11-07T00:53:16.658Z,33.03
2022-11-07T00:55:18.956Z,32.45
2022-11-07T00:57:21.073Z,32.25
2022-11-07T00:59:23.095Z,33.67
2022-11-07T01:08:47.762Z,29.70
2022-11-07T01:10:49.758Z,30.58
2022-11-07T01:12:51.887Z,29.40
2022-11-07T01:14:53.864Z,33.45
2022-11-07T01:16:56.350Z,32.60
2022-11-07T01:18:58.646Z,32.53
2022-11-07T01:21:07.574Z,29.77
2022-11-07T01:23:12.002Z,32.97
2022-11-07T01:25:14.206Z,29.25
2022-11-07T01:27:27.663Z,31.38
2022-11-07T01:29:29.871Z,32.47
2022-11-07T01:31:32.151Z,28.05
2022-11-07T01:33:34.991Z,30.63
2022-11-07T01:35:37.451Z,28.50
2022-11-07T01:37:39.447Z,27.92
2022-11-07T01:39:41.420Z,30.63
2022-11-07T01:41:43.705Z,25.92
2022-11-07T01:43:51.630Z,30.05
2022-11-07T01:45:53.745Z,27.33
2022-11-07T01:48:01.038Z,27.13
2022-11-07T01:50:06.074Z,27.92
2022-11-07T01:52:29.731Z,29.95
2022-11-07T01:54:39.466Z,28.98
2022-11-07T01:56:44.417Z,28.42
2022-11-07T01:58:47.803Z,29.52
2022-11-07T02:00:50.035Z,27.48
2022-11-07T02:02:58.287Z,25.35
2022-11-07T02:05:02.926Z,29.15
2022-11-07T02:07:09.473Z,27.80
2022-11-07T02:09:11.970Z,26.42
2022-11-07T02:11:14.851Z,25.50
2022-11-07T02:13:29.281Z,25.23
2022-11-07T02:15:36.485Z,25.52
2022-11-07T02:17:38.998Z,27.45
2022-11-07T02:19:44.649Z,27.25
2022-11-07T02:21:59.110Z,27.63
2022-11-07T02:24:07.405Z,26.17
2022-11-07T02:26:09.759Z,24.83
2022-11-07T02:28:14.831Z,25.55
2022-11-07T02:30:22.664Z,26.25
2022-11-07T02:32:25.407Z,26.58
2022-11-07T02:34:27.496Z,30.25
2022-11-07T02:36:29.474Z,29.52
2022-11-07T02:38:35.231Z,29.45
2022-11-07T02:40:38.313Z,27.85
2022-11-07T02:42:46.678Z,27.55
2022-11-07T02:44:49.189Z,28.27
2022-11-07T02:46:51.457Z,27.85
2022-11-07T02:48:59.249Z,27.63
2022-11-07T02:51:01.397Z,25.55
2022-11-07T02:53:03.480Z,24.75
2022-11-07T02:55:07.746Z,24.13
2022-11-07T02:57:09.833Z,27.75
2022-11-07T02:59:11.908Z,23.17
2022-11-07T03:01:14.559Z,23.35
2022-11-07T03:03:17.278Z,24.90
2022-11-07T03:05:21.055Z,21.80
2022-11-07T03:07:23.161Z,22.55
2022-11-07T03:09:25.166Z,21.60
2022-11-07T03:11:27.453Z,23.73
2022-11-07T03:13:29.490Z,20.70
2022-11-07T03:15:31.631Z,20.98
2022-11-07T03:17:34.114Z,22.33
2022-11-07T03:19:36.258Z,23.55
2022-11-07T03:21:38.063Z,22.45
2022-11-07T03:23:40.413Z,21.17
2022-11-07T03:25:42.735Z,21.55
2022-11-07T03:27:51.125Z,22.52
2022-11-07T03:29:53.335Z,21.00
2022-11-07T03:31:55.400Z,22.85
2022-11-07T03:33:57.621Z,25.25
2022-11-07T03:35:59.840Z,22.02
2022-11-07T03:38:01.897Z,22.75
2022-11-07T03:40:04.784Z,22.80
2022-11-07T03:42:07.153Z,21.63
2022-11-07T03:44:12.054Z,24.00
2022-11-07T03:46:15.048Z,23.40
2022-11-07T03:48:17.556Z,22.20
2022-11-07T03:50:21.337Z,21.35
2022-11-07T03:52:23.455Z,24.70
2022-11-07T03:54:25.561Z,22.67
2022-11-07T03:56:27.853Z,19.73
2022-11-07T03:58:29.940Z,22.05
2022-11-07T04:00:32.234Z,21.00
2022-11-07T04:02:34.570Z,23.60
2022-11-07T04:04:37.284Z,21.13
2022-11-07T04:06:39.321Z,20.83
2022-11-07T04:08:41.716Z,23.90
2022-11-07T04:10:43.879Z,21.20
2022-11-07T04:13:04.290Z,24.38
2022-11-07T04:15:25.009Z,23.50
2022-11-07T04:17:28.430Z,22.48
2022-11-07T04:19:30.515Z,22.55
2022-11-07T04:21:32.405Z,23.67
2022-11-07T04:23:34.882Z,22.42
2022-11-07T04:25:55.471Z,23.42
2022-11-07T04:27:57.862Z,23.50
2022-11-07T04:30:19.302Z,20.65
2022-11-07T04:32:23.423Z,21.60
2022-11-07T04:34:25.349Z,19.98
2022-11-07T04:36:27.714Z,20.70
2022-11-07T04:38:29.792Z,19.40
2022-11-07T04:40:32.032Z,20.08
2022-11-07T04:42:34.374Z,19.05
2022-11-07T04:44:36.619Z,21.67
2022-11-07T04:46:38.617Z,22.27
2022-11-07T04:48:40.573Z,22.48
2022-11-07T04:50:43.072Z,19.98
2022-11-07T04:52:48.850Z,19.42
2022-11-07T04:54:51.119Z,19.33
2022-11-07T04:56:53.220Z,19.98
2022-11-07T04:58:55.567Z,20.67
2022-11-07T05:00:58.203Z,19.52
2022-11-07T05:03:00.833Z,20.83
2022-11-07T05:05:02.887Z,19.60
2022-11-07T05:07:05.210Z,19.23
2022-11-07T05:09:09.629Z,20.88
2022-11-07T05:11:12.321Z,17.23
2022-11-07T05:13:17.088Z,18.95
2022-11-07T05:15:19.747Z,17.80
2022-11-07T05:17:27.968Z,18.58
2022-11-07T05:19:30.410Z,19.95
2022-11-07T05:21:32.573Z,21.48
2022-11-07T05:23:34.902Z,19.85
2022-11-07T05:25:36.980Z,16.85
2022-11-07T05:27:39.271Z,17.30
2022-11-07T05:29:41.560Z,17.95
2022-11-07T05:31:44.046Z,16.65
2022-11-07T05:33:47.577Z,20.02
2022-11-07T05:35:49.626Z,18.15
2022-11-07T05:37:51.671Z,18.83
2022-11-07T05:39:55.140Z,18.73
2022-11-07T05:41:57.140Z,19.73
2022-11-07T05:43:59.081Z,19.45
2022-11-07T05:46:01.906Z,17.77
2022-11-07T05:48:07.130Z,17.98
2022-11-07T05:50:09.464Z,17.05
2022-11-07T05:52:11.493Z,18.75
2022-11-07T05:54:13.738Z,18.85
2022-11-07T05:56:15.839Z,18.83
2022-11-07T05:58:18.022Z,20.98
2022-11-07T06:00:20.473Z,18.60
2022-11-07T06:02:22.428Z,21.05
2022-11-07T06:04:24.605Z,19.58
2022-11-07T06:06:26.432Z,19.25
2022-11-07T06:08:28.445Z,18.50
2022-11-07T06:10:30.278Z,19.58
2022-11-07T06:12:32.366Z,21.98
2022-11-07T06:14:34.368Z,23.08
2022-11-07T06:16:36.529Z,22.40
2022-11-07T06:18:41.594Z,24.88
2022-11-07T06:20:44.144Z,21.15
2022-11-07T06:22:46.278Z,24.67
2022-11-07T06:24:48.399Z,21.70
2022-11-07T06:26:50.534Z,22.95
2022-11-07T06:28:52.959Z,23.90
2022-11-07T06:30:59.875Z,24.55
2022-11-07T06:33:06.462Z,24.20
2022-11-07T06:35:08.741Z,21.58
2022-11-07T06:37:10.494Z,21.23
2022-11-07T06:39:12.535Z,19.80
2022-11-07T06:41:15.281Z,19.38
2022-11-07T06:43:19.887Z,17.80
2022-11-07T06:45:22.380Z,19.17
2022-11-07T06:47:24.219Z,18.75
2022-11-07T06:49:26.179Z,16.75
2022-11-07T06:51:28.346Z,18.15
2022-11-07T06:53:30.537Z,18.73
2022-11-07T06:55:34.384Z,20.02
2022-11-07T06:57:36.183Z,19.67
2022-11-07T06:59:38.470Z,21.65
2022-11-07T07:01:40.569Z,22.23
2022-11-07T07:03:43.679Z,20.50
2022-11-07T07:05:45.489Z,19.83
2022-11-07T07:07:47.335Z,20.30
2022-11-07T07:09:49.180Z,20.30
2022-11-07T07:11:51.083Z,20.42
2022-11-07T07:13:53.093Z,18.77
2022-11-07T07:15:57.915Z,18.45
2022-11-07T07:18:01.204Z,18.23
2022-11-07T07:20:07.196Z,20.20
2022-11-07T07:22:13.881Z,22.73
2022-11-07T07:24:15.707Z,25.15
2022-11-07T07:26:17.754Z,24.63
2022-11-07T07:28:19.626Z,25.10
2022-11-07T07:30:21.445Z,23.58
2022-11-07T07:32:25.374Z,23.20
2022-11-07T07:34:27.152Z,23.58
2022-11-07T07:36:29.295Z,24.65
2022-11-07T07:38:31.693Z,24.42
2022-11-07T07:40:33.806Z,28.50
2022-11-07T07:42:41.277Z,30.08
2022-11-07T07:44:43.286Z,28.77
2022-11-07T07:46:46.958Z,24.77
2022-11-07T07:48:49.126Z,23.38
2022-11-07T07:50:51.061Z,25.35
2022-11-07T07:53:00.789Z,25.90
2022-11-07T07:55:09.127Z,25.02
2022-11-07T07:57:11.038Z,23.90
2022-11-07T07:59:12.977Z,24.63
2022-11-07T08:01:16.061Z,25.98
2022-11-07T08:03:18.324Z,24.25
2022-11-07T08:05:20.303Z,24.75
2022-11-07T08:07:22.196Z,25.17
2022-11-07T08:09:24.013Z,24.63
2022-11-07T08:11:25.962Z,22.92
2022-11-07T08:13:30.249Z,20.80
2022-11-07T08:15:32.220Z,23.20
2022-11-07T08:17:34.323Z,21.80
2022-11-07T08:19:36.677Z,20.50
2022-11-07T08:21:38.756Z,21.40
2022-11-07T08:23:40.839Z,21.90
2022-11-07T08:25:43.139Z,20.90
2022-11-07T08:27:45.104Z,21.67
2022-11-07T08:29:47.077Z,23.23
2022-11-07T08:31:50.799Z,22.42
2022-11-07T08:33:53.118Z,22.83
2022-11-07T08:36:00.830Z,24.20
2022-11-07T08:38:02.713Z,28.42
2022-11-07T08:40:05.118Z,32.42
2022-11-07T08:42:06.998Z,31.77
2022-11-07T08:44:10.119Z,28.52
2022-11-07T08:46:12.176Z,26.60
2022-11-07T08:48:15.429Z,23.70
2022-11-07T08:50:17.530Z,28.45
2022-11-07T08:52:19.820Z,30.10
2022-11-07T08:54:21.876Z,30.48
2022-11-07T08:56:23.851Z,27.20
2022-11-07T08:58:29.843Z,28.27
2022-11-07T09:00:32.645Z,24.52
2022-11-07T09:04:56.564Z,21.48
2022-11-07T09:06:58.450Z,22.73
2022-11-07T09:09:00.503Z,22.67
2022-11-07T09:11:04.262Z,22.63
2022-11-07T09:13:06.013Z,22.40
2022-11-07T09:15:08.483Z,22.38
2022-11-07T09:17:35.649Z,23.10
2022-11-07T09:19:37.650Z,22.70
2022-11-07T09:21:40.068Z,22.60
2022-11-07T09:23:42.062Z,22.15
2022-11-07T09:25:44.203Z,21.90
2022-11-07T09:27:47.429Z,23.00
2022-11-07T09:29:50.014Z,21.88
2022-11-07T09:31:51.882Z,22.30
2022-11-07T09:33:53.787Z,22.40
2022-11-07T09:35:59.679Z,23.30
2022-11-07T09:38:01.566Z,22.63
2022-11-07T09:40:04.180Z,21.55
2022-11-07T09:42:39.708Z,21.80
2022-11-07T09:44:57.587Z,22.00
2022-11-07T09:47:11.510Z,21.38
2022-11-07T09:49:42.565Z,24.13
2022-11-07T09:52:03.434Z,23.35
2022-11-07T09:54:11.576Z,23.58
2022-11-07T09:56:14.665Z,22.33
2022-11-07T09:58:38.191Z,21.40
2022-11-07T10:00:40.776Z,23.33
2022-11-07T10:02:51.241Z,24.17
2022-11-07T10:05:01.422Z,25.95
2022-11-07T10:07:32.630Z,26.38
2022-11-07T10:09:55.322Z,28.65
2022-11-07T10:12:00.271Z,29.23
2022-11-07T10:14:13.390Z,26.70
2022-11-07T10:16:24.007Z,26.27
2022-11-07T10:18:34.798Z,24.85
2022-11-07T10:21:16.191Z,24.45
2022-11-07T10:23:41.565Z,23.85
2022-11-07T10:25:55.209Z,21.27
2022-11-07T10:28:13.342Z,21.42
2022-11-07T10:30:19.080Z,21.20
2022-11-07T10:32:23.348Z,22.52
2022-11-07T10:34:43.100Z,22.33
2022-11-07T10:36:45.097Z,21.35
2022-11-07T10:38:47.042Z,22.13
2022-11-07T10:40:54.274Z,23.20
2022-11-07T10:42:57.767Z,22.52
2022-11-07T10:45:02.794Z,22.83
2022-11-07T10:47:15.969Z,23.77
2022-11-07T10:49:32.650Z,22.70
2022-11-07T10:51:40.409Z,24.05
2022-11-07T10:53:48.121Z,23.60
2022-11-07T10:55:52.370Z,22.92
2022-11-07T10:58:04.350Z,21.75
2022-11-07T11:00:23.144Z,23.25
2022-11-07T11:02:27.106Z,23.95
2022-11-07T11:04:32.695Z,24.08
2022-11-07T11:06:34.656Z,23.08
2022-11-07T11:08:38.579Z,22.65
2022-11-07T11:10:40.898Z,23.63
2022-11-07T11:12:46.384Z,22.00
2022-11-07T11:14:49.885Z,22.40
2022-11-07T11:16:56.554Z,24.42
2022-11-07T11:19:01.218Z,21.73
2022-11-07T11:21:40.713Z,22.02
2022-11-07T11:23:45.395Z,21.67
2022-11-07T11:25:50.295Z,21.38
2022-11-07T11:28:02.818Z,20.58
2022-11-07T11:30:20.674Z,21.45
2022-11-07T11:32:35.442Z,39.67
2022-11-07T11:34:40.503Z,50.97
2022-11-07T11:36:54.131Z,58.42
2022-11-07T11:38:56.537Z,58.33
2022-11-07T11:41:11.260Z,53.42
2022-11-07T11:43:46.786Z,46.40
2022-11-07T11:46:07.837Z,38.17
2022-11-07T11:48:23.763Z,35.03
2022-11-07T11:53:55.620Z,32.35
2022-11-07T11:56:11.659Z,31.17
2022-11-07T11:58:39.889Z,35.47
2022-11-07T12:00:54.488Z,31.02
2022-11-07T12:03:15.475Z,35.85
2022-11-07T12:05:38.915Z,34.55
2022-11-07T12:07:52.338Z,32.97
2022-11-07T12:09:59.934Z,33.42
2022-11-07T12:12:08.784Z,35.25
2022-11-07T12:14:29.497Z,33.38
2022-11-07T12:17:00.867Z,32.63
2022-11-07T12:19:21.343Z,32.05
2022-11-07T12:21:44.657Z,28.88
2022-11-07T12:24:16.836Z,33.08
2022-11-07T12:26:24.571Z,27.98
2022-11-07T12:29:05.687Z,21.63
2022-11-07T12:31:36.249Z,21.10
2022-11-07T12:34:40.526Z,21.45
2022-11-07T12:37:07.864Z,18.80
2022-11-07T12:39:29.656Z,17.02
2022-11-07T12:41:47.251Z,18.38
2022-11-07T12:44:20.042Z,18.35
2022-11-07T12:46:43.836Z,17.45
2022-11-07T12:49:23.016Z,16.98
2022-11-07T12:51:31.690Z,15.30
2022-11-07T12:53:39.295Z,15.98
2022-11-07T12:56:13.380Z,16.17
2022-11-07T12:58:25.707Z,15.70
2022-11-07T13:00:30.407Z,18.98
2022-11-07T13:03:04.775Z,20.95
2022-11-07T13:05:24.814Z,19.33
2022-11-07T13:08:02.174Z,22.02
2022-11-07T13:10:24.150Z,21.52
2022-11-07T13:12:35.377Z,21.67
2022-11-07T13:14:42.640Z,23.55
2022-11-07T13:16:58.008Z,21.52
2022-11-07T13:19:31.313Z,18.88
2022-11-07T13:21:44.458Z,18.80
2022-11-07T13:23:47.733Z,18.02
2022-11-07T13:25:59.069Z,18.50
2022-11-07T13:28:02.607Z,15.13
2022-11-07T13:30:13.548Z,13.57
2022-11-07T13:32:16.986Z,12.88
2022-11-07T13:34:18.992Z,11.88
2022-11-07T13:36:28.981Z,12.52
2022-11-07T13:38:32.076Z,12.68
2022-11-07T13:40:35.909Z,14.07
2022-11-07T13:42:40.383Z,13.23
2022-11-07T13:44:43.790Z,11.68
2022-11-07T13:46:51.393Z,12.30
2022-11-07T13:48:58.161Z,11.38
2022-11-07T13:51:06.150Z,11.20
2022-11-07T13:53:19.702Z,12.13
2022-11-07T13:55:25.801Z,11.80
2022-11-07T13:57:34.396Z,14.85
2022-11-07T13:59:52.804Z,16.92
2022-11-07T14:01:57.341Z,17.80
2022-11-07T14:03:59.466Z,16.15
2022-11-07T14:06:02.753Z,16.52
2022-11-07T14:08:08.343Z,17.30
2022-11-07T14:10:39.030Z,17.83
2022-11-07T14:12:40.962Z,17.25
2022-11-07T14:14:43.354Z,17.52
2022-11-07T14:16:46.552Z,17.98
2022-11-07T14:18:51.974Z,15.73
2022-11-07T14:20:57.129Z,13.50
2022-11-07T14:23:00.830Z,13.77
2022-11-07T14:25:03.266Z,12.70
2022-11-07T14:27:07.523Z,13.70
2022-11-07T14:29:22.064Z,14.07
2022-11-07T14:31:29.464Z,13.18
2022-11-07T14:33:31.893Z,14.88
2022-11-07T14:35:35.478Z,14.95
2022-11-07T14:37:37.709Z,15.50
2022-11-07T14:39:39.778Z,17.42
2022-11-07T14:41:43.200Z,18.17
2022-11-07T14:43:56.457Z,14.95
2022-11-07T14:46:12.499Z,14.73
2022-11-07T14:48:20.192Z,12.43
2022-11-07T14:50:28.020Z,13.45
2022-11-07T14:52:36.418Z,14.23
2022-11-07T14:54:41.965Z,15.32
2022-11-07T14:56:47.860Z,15.50
2022-11-07T14:58:50.361Z,18.00
2022-11-07T15:00:58.443Z,16.23
2022-11-07T15:03:01.035Z,15.73
2022-11-07T15:05:10.623Z,14.52
2022-11-07T15:07:29.896Z,13.82
2022-11-07T15:09:36.177Z,13.50
2022-11-07T15:11:54.727Z,12.35
2022-11-07T15:13:58.577Z,12.15
2022-11-07T15:16:15.570Z,11.15
2022-11-07T15:18:26.950Z,12.35
2022-11-07T15:20:33.679Z,12.52
2022-11-07T15:22:39.638Z,12.95
2022-11-07T15:24:44.219Z,11.75
2022-11-07T15:26:46.442Z,10.57
2022-11-07T15:28:53.109Z,10.63
2022-11-07T15:31:00.038Z,11.45
2022-11-07T15:33:02.268Z,11.82
2022-11-07T15:35:43.633Z,13.70
2022-11-07T15:37:37.501Z,13.00
2022-11-07T15:39:39.606Z,14.73
2022-11-07T15:41:41.633Z,45.10
2022-11-07T15:43:44.359Z,43.97
2022-11-07T15:45:48.216Z,43.13
2022-11-07T15:47:51.092Z,40.42
2022-11-07T15:49:53.192Z,34.33
2022-11-07T15:51:55.419Z,31.00
2022-11-07T15:53:57.784Z,29.85
2022-11-07T15:56:01.668Z,25.55
2022-11-07T15:58:03.851Z,25.02
2022-11-07T16:00:06.545Z,25.70
2022-11-07T16:02:17.376Z,23.50
2022-11-07T16:04:19.675Z,21.63
2022-11-07T16:06:29.201Z,19.90
2022-11-07T16:08:31.430Z,19.67
2022-11-07T16:10:33.810Z,18.55
2022-11-07T16:12:36.016Z,18.10
2022-11-07T16:14:43.848Z,17.30
2022-11-07T16:16:48.579Z,16.20
2022-11-07T16:18:53.425Z,19.10
2022-11-07T16:20:55.493Z,21.88
2022-11-07T16:22:57.417Z,24.10
2022-11-07T16:24:59.514Z,25.45
2022-11-07T16:27:01.892Z,24.83
2022-11-07T16:29:04.118Z,24.50
2022-11-07T16:31:06.228Z,25.15
2022-11-07T16:33:11.161Z,29.42
2022-11-07T16:35:13.559Z,32.47
2022-11-07T16:37:15.994Z,33.05
2022-11-07T16:39:23.467Z,33.10
2022-11-07T16:41:25.707Z,37.53
2022-11-07T16:43:27.883Z,35.22
2022-11-07T16:45:29.868Z,33.60
2022-11-07T16:47:32.798Z,30.30
2022-11-07T16:49:34.790Z,26.42
2022-11-07T16:51:36.860Z,21.17
2022-11-07T16:53:38.769Z,20.52
2022-11-07T16:55:47.181Z,17.63
2022-11-07T16:57:51.558Z,17.35
2022-11-07T16:59:53.706Z,15.20
2022-11-07T17:01:55.934Z,14.65
2022-11-07T17:03:57.913Z,14.40
2022-11-07T17:06:02.429Z,15.45
2022-11-07T17:08:14.709Z,14.48
2022-11-07T17:10:17.883Z,16.40
2022-11-07T17:12:22.830Z,17.08
2022-11-07T17:14:24.871Z,17.23
2022-11-07T17:16:30.080Z,27.33
2022-11-07T17:18:34.666Z,64.32
2022-11-07T17:20:52.487Z,68.45
2022-11-07T17:22:54.779Z,83.25
2022-11-07T17:24:56.788Z,91.60
2022-11-07T17:26:59.403Z,99.28
2022-11-07T17:29:02.224Z,138.57
2022-11-07T17:31:04.571Z,168.07
2022-11-07T17:33:06.651Z,171.55
2022-11-07T17:35:31.146Z,145.23
2022-11-07T17:37:31.511Z,115.95
2022-11-07T17:39:33.859Z,83.38
2022-11-07T17:41:35.950Z,62.08
2022-11-07T17:43:38.036Z,56.78
2022-11-07T17:45:40.953Z,42.92
2022-11-07T17:47:43.158Z,43.75
2022-11-07T17:49:46.307Z,53.75
2022-11-07T17:51:48.423Z,55.65
2022-11-07T17:53:50.691Z,50.75
2022-11-07T17:55:52.758Z,47.30
2022-11-07T17:57:54.980Z,40.63
2022-11-07T17:59:57.008Z,40.90
2022-11-07T18:05:53.631Z,33.45
2022-11-07T18:07:55.553Z,31.35
2022-11-07T18:09:57.588Z,28.27
2022-11-07T18:13:14.862Z,22.00
2022-11-07T18:15:17.042Z,23.42
2022-11-07T18:17:44.184Z,36.17
2022-11-07T18:19:47.963Z,50.65
2022-11-07T18:21:50.011Z,55.47
2022-11-07T18:23:52.210Z,45.35
2022-11-07T18:26:20.628Z,43.08
2022-11-07T18:28:22.758Z,56.50
2022-11-07T18:30:24.859Z,60.00
2022-11-07T18:32:29.257Z,57.67
2022-11-07T18:34:35.060Z,57.33
2022-11-07T18:36:38.673Z,53.78
2022-11-07T18:38:40.802Z,45.30
2022-11-07T18:40:42.635Z,41.88
2022-11-07T18:42:46.196Z,51.85
2022-11-07T18:44:48.265Z,53.03
2022-11-07T18:46:50.818Z,52.40
2022-11-07T18:48:52.806Z,49.03
2022-11-07T18:50:57.209Z,53.38
2022-11-07T18:53:01.599Z,45.50
2022-11-07T18:55:04.218Z,49.42
2022-11-07T18:57:06.594Z,55.35
2022-11-07T18:59:08.772Z,65.03
2022-11-07T19:01:15.400Z,78.57
2022-11-07T19:03:18.036Z,79.82
2022-11-07T19:05:20.644Z,85.95
2022-11-07T19:07:22.597Z,89.47
2022-11-07T19:09:27.225Z,82.20
2022-11-07T19:11:31.354Z,79.28
2022-11-07T19:13:38.925Z,69.53
2022-11-07T19:15:40.919Z,54.63
2022-11-07T19:17:43.067Z,57.60
2022-11-07T19:19:45.340Z,128.68
2022-11-07T19:21:47.403Z,131.40
2022-11-07T19:23:53.404Z,231.38
2022-11-07T19:25:55.928Z,254.35
2022-11-07T19:27:58.640Z,273.52
2022-11-07T19:31:03.874Z,256.25
2022-11-07T19:33:08.295Z,202.88
2022-11-07T19:35:10.655Z,190.40
2022-11-07T19:37:12.959Z,151.88
2022-11-07T19:39:15.201Z,105.88
2022-11-07T19:41:18.040Z,78.40
2022-11-07T19:43:20.353Z,76.57
2022-11-07T19:45:26.546Z,82.47
2022-11-07T19:47:30.974Z,68.75
2022-11-07T19:49:33.203Z,62.28
2022-11-07T19:51:36.524Z,77.78
2022-11-07T19:53:38.878Z,99.15
2022-11-07T19:55:41.085Z,124.40
2022-11-07T19:57:43.165Z,110.95
2022-11-07T19:59:45.177Z,125.40
2022-11-07T20:02:04.207Z,116.85
2022-11-07T20:04:09.124Z,119.95
2022-11-07T20:06:13.408Z,134.70
2022-11-07T20:08:17.757Z,115.78
2022-11-07T20:10:20.538Z,104.15
2022-11-07T20:12:22.753Z,93.10
2022-11-07T20:14:25.319Z,90.82
2022-11-07T20:16:27.819Z,97.22
2022-11-07T20:18:55.276Z,93.57
2022-11-07T20:21:06.585Z,67.53
2022-11-07T20:23:10.203Z,50.88
2022-11-07T20:25:12.545Z,65.13
2022-11-07T20:27:14.922Z,65.25
2022-11-07T20:29:18.656Z,64.90
2022-11-07T20:31:24.169Z,64.25
2022-11-07T20:33:26.128Z,65.82
2022-11-07T20:35:28.107Z,54.78
2022-11-07T20:37:30.296Z,51.60
2022-11-07T20:39:32.493Z,46.17
2022-11-07T20:41:35.112Z,47.45
2022-11-07T20:43:37.659Z,52.80
2022-11-07T20:45:39.557Z,79.68
2022-11-07T20:47:41.808Z,85.70
2022-11-07T20:49:43.824Z,87.68
2022-11-07T20:51:45.859Z,81.88
2022-11-07T20:53:50.307Z,89.85
2022-11-07T20:55:52.699Z,110.70
2022-11-07T20:58:19.617Z,121.38
2022-11-07T21:00:22.197Z,111.28
2022-11-07T21:02:24.448Z,87.65
2022-11-07T21:04:26.559Z,96.75
2022-11-07T21:06:28.601Z,149.05
2022-11-07T21:08:37.222Z,179.52
2022-11-07T21:10:39.656Z,160.70
2022-11-07T21:12:42.920Z,131.48
2022-11-07T21:14:45.469Z,91.80
2022-11-07T21:16:47.508Z,72.68
2022-11-07T21:18:50.626Z,58.28
2022-11-07T21:20:52.900Z,50.28
2022-11-07T21:22:55.135Z,50.47
2022-11-07T21:24:57.470Z,52.85
2022-11-07T21:26:59.578Z,55.38
2022-11-07T21:29:03.658Z,52.65
2022-11-07T21:31:08.167Z,41.45
2022-11-07T21:33:10.359Z,35.80
2022-11-07T21:35:14.288Z,33.85
2022-11-07T21:37:16.548Z,41.08
2022-11-07T21:39:21.119Z,50.10
2022-11-07T21:41:25.596Z,59.90
2022-11-07T21:43:27.547Z,65.88
2022-11-07T21:45:29.519Z,61.38
2022-11-07T21:47:31.775Z,46.75
2022-11-07T21:49:33.793Z,40.65
2022-11-07T21:52:26.254Z,39.17
2022-11-07T21:54:28.498Z,39.78
2022-11-07T21:56:32.975Z,39.17
2022-11-07T21:58:35.384Z,45.38
2022-11-07T22:00:39.288Z,46.35
2022-11-07T22:02:41.382Z,50.58
2022-11-07T22:04:43.459Z,71.43
2022-11-07T22:06:45.971Z,73.18
2022-11-07T22:08:49.936Z,77.85
2022-11-07T22:10:51.864Z,93.05
2022-11-07T22:12:54.134Z,98.43
2022-11-07T22:14:56.421Z,82.20
2022-11-07T22:16:58.386Z,74.03
2022-11-07T22:19:00.675Z,61.17
2022-11-07T22:21:04.948Z,57.85
2022-11-07T22:23:06.900Z,60.65
2022-11-07T22:25:09.136Z,51.60
2022-11-07T22:27:11.250Z,58.28
2022-11-07T22:29:13.378Z,52.80
2022-11-07T22:31:23.286Z,54.40
2022-11-07T22:33:25.585Z,51.45
2022-11-07T22:35:27.811Z,48.13
2022-11-07T22:37:31.363Z,42.90
2022-11-07T22:39:33.516Z,46.28
2022-11-07T22:41:35.931Z,44.70
2022-11-07T22:43:38.416Z,40.90
2022-11-07T22:45:44.292Z,42.13
2022-11-07T22:47:46.382Z,41.15
2022-11-07T22:49:48.623Z,41.17
2022-11-07T22:51:50.774Z,48.60
2022-11-07T22:53:57.911Z,70.13
2022-11-07T22:56:06.403Z,87.60
2022-11-07T22:58:08.606Z,72.55
2022-11-07T23:00:21.429Z,115.53
2022-11-07T23:02:24.259Z,99.47
2022-11-07T23:04:31.512Z,94.65
2022-11-07T23:06:34.869Z,108.00
2022-11-07T23:08:37.681Z,91.45
2022-11-07T23:10:40.001Z,89.45
2022-11-07T23:12:42.103Z,101.93
2022-11-07T23:14:46.643Z,121.82
2022-11-07T23:16:53.503Z,146.90
2022-11-07T23:18:58.622Z,185.00
2022-11-07T23:24:51.612Z,159.27
2022-11-07T23:26:53.674Z,131.52
2022-11-07T23:28:56.452Z,145.02
2022-11-07T23:30:58.557Z,193.50
2022-11-07T23:33:00.519Z,186.65
2022-11-07T23:35:02.745Z,307.08
2022-11-07T23:37:13.989Z,399.15
2022-11-07T23:39:20.323Z,395.85
2022-11-07T23:41:22.453Z,373.35
2022-11-07T23:43:24.652Z,351.10
2022-11-07T23:45:45.837Z,299.48
2022-11-07T23:48:06.640Z,247.73
2022-11-07T23:50:28.009Z,239.23
2022-11-07T23:52:30.026Z,210.30
2022-11-07T23:54:50.741Z,201.68
2022-11-07T23:56:52.639Z,171.80
2022-11-07T23:59:14.120Z,184.65
